ITY319 LIRF-EGCC
Flight info
| Callsign | ITY319 |
|---|---|
| Flight time | 2h 17m |
| Altitude | 40000 |
| Route | NEMBO DCT GOVGO DCT SPEZI DCT TESTO DCT AOSTA DCT ORSUD DCT MOLUS DCT IBODI DCT GOTED DCT TRO DCT CLM DCT KOPOR DCT VESAN DCT RATUK DCT SOVAT L613 SANDY UN57 WELIN T420 ELVOS |
| Aircraft | A332/H-SDE3GHIJ2J3J5M1RVWXY/LB2D1 |
Departure
| Time | 2026-05-04 18:16 |
|---|---|
| Airport | Rome–Fiumicino Leonardo da Vinci International Airport (LIRF) |
Arrival
| Time | 2026-05-04 20:34 |
|---|---|
| Airport | Manchester Airport (EGCC) |
| Time | Latitude | Longitude | Altitude | Speed | Heading |
|---|---|---|---|---|---|
| 2026-05-04 17:52 | 41.79801 | 12.25517 | 19 ft | 0 kts | 116° |
| 2026-05-04 18:09 | 41.79811 | 12.25464 | 21 ft | 4 kts | 51° |
| 2026-05-04 18:10 | 41.79791 | 12.25444 | 21 ft | 2 kts | 25° |
| 2026-05-04 18:10 | 41.79790 | 12.25444 | 21 ft | 0 kts | 25° |
| 2026-05-04 18:11 | 41.79841 | 12.25476 | 19 ft | 14 kts | 25° |
| 2026-05-04 18:12 | 41.79909 | 12.25519 | 20 ft | 10 kts | 25° |
| 2026-05-04 18:12 | 41.80001 | 12.25587 | 19 ft | 11 kts | 49° |
| 2026-05-04 18:12 | 41.79988 | 12.25645 | 19 ft | 14 kts | 114° |
| 2026-05-04 18:12 | 41.79937 | 12.25826 | 19 ft | 14 kts | 82° |
| 2026-05-04 18:13 | 41.80001 | 12.25899 | 21 ft | 12 kts | 27° |
| 2026-05-04 18:13 | 41.80090 | 12.25957 | 19 ft | 17 kts | 24° |
| 2026-05-04 18:13 | 41.80355 | 12.26120 | 20 ft | 25 kts | 26° |
| 2026-05-04 18:14 | 41.80517 | 12.26228 | 19 ft | 27 kts | 48° |
| 2026-05-04 18:14 | 41.80594 | 12.26468 | 20 ft | 29 kts | 70° |
| 2026-05-04 18:14 | 41.80663 | 12.26728 | 20 ft | 30 kts | 69° |
| 2026-05-04 18:15 | 41.80909 | 12.26999 | 19 ft | 27 kts | 341° |
| 2026-05-04 18:15 | 41.80949 | 12.26887 | 17 ft | 0 kts | 250° |
| 2026-05-04 18:15 | 41.80883 | 12.26642 | 18 ft | 68 kts | 249° |
| 2026-05-04 18:16 | 41.80624 | 12.25716 | 23 ft | 142 kts | 249° |
| 2026-05-04 18:16 | 41.80238 | 12.24243 | 263 ft | 186 kts | 246° |
| 2026-05-04 18:16 | 41.79799 | 12.22582 | 1285 ft | 187 kts | 246° |
| 2026-05-04 18:17 | 41.79231 | 12.19164 | 2725 ft | 207 kts | 263° |
| 2026-05-04 18:17 | 41.79162 | 12.17095 | 3045 ft | 237 kts | 265° |
| 2026-05-04 18:17 | 41.79059 | 12.12354 | 3893 ft | 265 kts | 265° |
| 2026-05-04 18:18 | 41.79016 | 12.09882 | 4106 ft | 266 kts | 266° |
| 2026-05-04 18:18 | 41.79008 | 12.07393 | 4631 ft | 268 kts | 266° |
| 2026-05-04 18:18 | 41.79006 | 12.04878 | 5523 ft | 270 kts | 267° |
| 2026-05-04 18:18 | 41.79003 | 12.02396 | 6462 ft | 270 kts | 266° |
| 2026-05-04 18:19 | 41.78992 | 11.97331 | 8259 ft | 274 kts | 266° |
| 2026-05-04 18:19 | 41.78986 | 11.94780 | 9223 ft | 274 kts | 267° |
| 2026-05-04 18:19 | 41.78980 | 11.92211 | 10164 ft | 276 kts | 267° |
| 2026-05-04 18:20 | 41.78971 | 11.89589 | 10709 ft | 290 kts | 268° |
| 2026-05-04 18:20 | 41.78958 | 11.86777 | 11018 ft | 311 kts | 268° |
| 2026-05-04 18:20 | 41.78947 | 11.83855 | 11546 ft | 323 kts | 268° |
| 2026-05-04 18:20 | 41.78936 | 11.80810 | 12248 ft | 328 kts | 269° |
| 2026-05-04 18:21 | 41.78924 | 11.77741 | 13048 ft | 330 kts | 269° |
| 2026-05-04 18:21 | 41.78910 | 11.74663 | 13859 ft | 332 kts | 269° |
| 2026-05-04 18:21 | 41.78895 | 11.71549 | 14549 ft | 335 kts | 269° |
| 2026-05-04 18:21 | 41.78881 | 11.68416 | 15205 ft | 338 kts | 269° |
| 2026-05-04 18:22 | 41.78865 | 11.65282 | 15855 ft | 342 kts | 268° |
| 2026-05-04 18:22 | 41.78847 | 11.62073 | 16506 ft | 345 kts | 268° |
| 2026-05-04 18:22 | 41.78863 | 11.58832 | 17138 ft | 349 kts | 271° |
| 2026-05-04 18:22 | 41.79310 | 11.55611 | 17740 ft | 357 kts | 287° |
| 2026-05-04 18:23 | 41.80498 | 11.52660 | 18344 ft | 366 kts | 303° |
| 2026-05-04 18:23 | 41.82130 | 11.50006 | 18904 ft | 370 kts | 308° |
| 2026-05-04 18:23 | 41.83853 | 11.47409 | 19472 ft | 373 kts | 308° |
| 2026-05-04 18:23 | 41.85587 | 11.44808 | 19995 ft | 376 kts | 308° |
| 2026-05-04 18:24 | 41.87331 | 11.42177 | 20541 ft | 378 kts | 308° |
| 2026-05-04 18:24 | 41.89069 | 11.39538 | 21081 ft | 380 kts | 308° |
| 2026-05-04 18:24 | 41.90830 | 11.36854 | 21624 ft | 383 kts | 308° |
| 2026-05-04 18:24 | 41.92570 | 11.34189 | 22127 ft | 385 kts | 308° |
| 2026-05-04 18:25 | 41.94345 | 11.31466 | 22661 ft | 387 kts | 308° |
| 2026-05-04 18:25 | 41.96130 | 11.28727 | 23141 ft | 390 kts | 308° |
| 2026-05-04 18:25 | 41.97927 | 11.25966 | 23612 ft | 394 kts | 308° |
| 2026-05-04 18:25 | 41.99714 | 11.23217 | 24037 ft | 395 kts | 308° |
| 2026-05-04 18:26 | 42.01525 | 11.20430 | 24496 ft | 396 kts | 308° |
| 2026-05-04 18:26 | 42.03341 | 11.17634 | 24960 ft | 397 kts | 308° |
| 2026-05-04 18:26 | 42.05155 | 11.14836 | 25413 ft | 397 kts | 307° |
| 2026-05-04 18:26 | 42.06974 | 11.12028 | 25861 ft | 398 kts | 307° |
| 2026-05-04 18:27 | 42.08800 | 11.09209 | 26252 ft | 400 kts | 307° |
| 2026-05-04 18:27 | 42.10631 | 11.06376 | 26653 ft | 402 kts | 307° |
| 2026-05-04 18:27 | 42.12469 | 11.03527 | 27076 ft | 403 kts | 307° |
| 2026-05-04 18:27 | 42.14310 | 11.00675 | 27493 ft | 404 kts | 307° |
| 2026-05-04 18:28 | 42.16155 | 10.97811 | 27901 ft | 405 kts | 307° |
| 2026-05-04 18:28 | 42.17979 | 10.94978 | 28291 ft | 406 kts | 306° |
| 2026-05-04 18:28 | 42.19828 | 10.92103 | 28682 ft | 407 kts | 306° |
| 2026-05-04 18:28 | 42.21691 | 10.89206 | 29073 ft | 408 kts | 306° |
| 2026-05-04 18:29 | 42.23556 | 10.86306 | 29444 ft | 410 kts | 306° |
| 2026-05-04 18:29 | 42.25424 | 10.83397 | 29830 ft | 411 kts | 306° |
| 2026-05-04 18:29 | 42.27399 | 10.80582 | 30196 ft | 416 kts | 312° |
| 2026-05-04 18:29 | 42.29680 | 10.78127 | 30488 ft | 424 kts | 321° |
| 2026-05-04 18:30 | 42.35067 | 10.74568 | 31083 ft | 436 kts | 331° |
| 2026-05-04 18:30 | 42.37917 | 10.73098 | 31374 ft | 439 kts | 333° |
| 2026-05-04 18:30 | 42.40796 | 10.71702 | 31646 ft | 441 kts | 334° |
| 2026-05-04 18:31 | 42.43660 | 10.70340 | 31930 ft | 442 kts | 334° |
| 2026-05-04 18:31 | 42.46571 | 10.68954 | 32203 ft | 444 kts | 333° |
| 2026-05-04 18:31 | 42.49489 | 10.67550 | 32523 ft | 444 kts | 333° |
| 2026-05-04 18:31 | 42.52399 | 10.66133 | 32937 ft | 442 kts | 333° |
| 2026-05-04 18:32 | 42.55287 | 10.64712 | 33402 ft | 438 kts | 333° |
| 2026-05-04 18:32 | 42.58105 | 10.63316 | 33839 ft | 435 kts | 332° |
| 2026-05-04 18:32 | 42.60952 | 10.61899 | 34207 ft | 434 kts | 332° |
| 2026-05-04 18:32 | 42.63791 | 10.60484 | 34494 ft | 433 kts | 332° |
| 2026-05-04 18:33 | 42.66624 | 10.59072 | 34754 ft | 433 kts | 332° |
| 2026-05-04 18:33 | 42.69453 | 10.57658 | 35015 ft | 433 kts | 333° |
| 2026-05-04 18:33 | 42.72250 | 10.56257 | 35190 ft | 435 kts | 332° |
| 2026-05-04 18:33 | 42.75102 | 10.54826 | 35383 ft | 437 kts | 332° |
| 2026-05-04 18:34 | 42.77959 | 10.53396 | 35634 ft | 437 kts | 332° |
| 2026-05-04 18:34 | 42.80816 | 10.51968 | 35942 ft | 435 kts | 333° |
| 2026-05-04 18:34 | 42.83658 | 10.50546 | 36223 ft | 434 kts | 333° |
| 2026-05-04 18:34 | 42.86492 | 10.49126 | 36485 ft | 434 kts | 333° |
| 2026-05-04 18:35 | 42.89331 | 10.47701 | 36710 ft | 434 kts | 333° |
| 2026-05-04 18:35 | 42.92125 | 10.46297 | 36964 ft | 433 kts | 333° |
| 2026-05-04 18:35 | 42.94955 | 10.44874 | 37208 ft | 433 kts | 333° |
| 2026-05-04 18:35 | 42.97778 | 10.43450 | 37475 ft | 432 kts | 333° |
| 2026-05-04 18:36 | 43.00594 | 10.42028 | 37723 ft | 431 kts | 333° |
| 2026-05-04 18:36 | 43.03411 | 10.40606 | 37964 ft | 430 kts | 333° |
| 2026-05-04 18:36 | 43.06220 | 10.39188 | 38197 ft | 430 kts | 333° |
| 2026-05-04 18:36 | 43.09023 | 10.37769 | 38429 ft | 429 kts | 333° |
| 2026-05-04 18:37 | 43.11828 | 10.36349 | 38656 ft | 429 kts | 334° |
| 2026-05-04 18:37 | 43.14610 | 10.34882 | 38842 ft | 426 kts | 330° |
| 2026-05-04 18:37 | 43.17233 | 10.33048 | 38996 ft | 421 kts | 323° |
| 2026-05-04 18:38 | 43.21851 | 10.28270 | 39214 ft | 417 kts | 314° |
| 2026-05-04 18:38 | 43.24047 | 10.25670 | 39330 ft | 417 kts | 314° |
| 2026-05-04 18:38 | 43.26222 | 10.23019 | 39471 ft | 417 kts | 313° |
| 2026-05-04 18:38 | 43.28381 | 10.20356 | 39591 ft | 418 kts | 313° |
| 2026-05-04 18:39 | 43.30559 | 10.17662 | 39678 ft | 420 kts | 313° |
| 2026-05-04 18:39 | 43.32713 | 10.15000 | 39783 ft | 421 kts | 313° |
| 2026-05-04 18:39 | 43.34899 | 10.12306 | 39890 ft | 421 kts | 313° |
| 2026-05-04 18:39 | 43.37088 | 10.09615 | 40017 ft | 422 kts | 313° |
| 2026-05-04 18:40 | 43.39278 | 10.06920 | 40081 ft | 424 kts | 313° |
| 2026-05-04 18:40 | 43.43690 | 10.01487 | 40077 ft | 426 kts | 313° |
| 2026-05-04 18:41 | 43.48091 | 9.96071 | 40072 ft | 429 kts | 313° |
| 2026-05-04 18:41 | 43.52573 | 9.90532 | 40068 ft | 436 kts | 313° |
| 2026-05-04 18:42 | 43.57128 | 9.84898 | 40071 ft | 443 kts | 313° |
| 2026-05-04 18:42 | 43.61753 | 9.79166 | 40080 ft | 449 kts | 312° |
| 2026-05-04 18:43 | 43.66388 | 9.73409 | 40069 ft | 451 kts | 313° |
| 2026-05-04 18:43 | 43.71044 | 9.67616 | 40067 ft | 450 kts | 312° |
| 2026-05-04 18:44 | 43.75705 | 9.61803 | 40071 ft | 450 kts | 312° |
| 2026-05-04 18:44 | 43.80454 | 9.56126 | 40070 ft | 452 kts | 315° |
| 2026-05-04 18:45 | 43.85342 | 9.50703 | 40071 ft | 453 kts | 316° |
| 2026-05-04 18:45 | 43.90292 | 9.45254 | 40081 ft | 454 kts | 315° |
| 2026-05-04 18:46 | 43.95231 | 9.39773 | 40075 ft | 455 kts | 315° |
| 2026-05-04 18:46 | 44.00164 | 9.34252 | 40073 ft | 455 kts | 315° |
| 2026-05-04 18:47 | 44.05089 | 9.28714 | 40082 ft | 455 kts | 315° |
| 2026-05-04 18:47 | 44.09983 | 9.23203 | 40064 ft | 456 kts | 315° |
| 2026-05-04 18:48 | 44.14911 | 9.17642 | 40071 ft | 456 kts | 315° |
| 2026-05-04 18:48 | 44.19853 | 9.12056 | 40084 ft | 456 kts | 315° |
| 2026-05-04 18:49 | 44.24780 | 9.06467 | 40081 ft | 457 kts | 315° |
| 2026-05-04 18:49 | 44.29714 | 9.00865 | 40095 ft | 461 kts | 315° |
| 2026-05-04 18:50 | 44.34712 | 8.95180 | 40101 ft | 463 kts | 315° |
| 2026-05-04 18:50 | 44.39709 | 8.89482 | 40105 ft | 463 kts | 315° |
| 2026-05-04 18:51 | 44.44700 | 8.83778 | 40104 ft | 463 kts | 316° |
| 2026-05-04 18:51 | 44.49700 | 8.78081 | 40103 ft | 463 kts | 316° |
| 2026-05-04 18:52 | 44.54660 | 8.72411 | 40096 ft | 463 kts | 316° |
| 2026-05-04 18:52 | 44.59689 | 8.66720 | 40094 ft | 466 kts | 317° |
| 2026-05-04 18:53 | 44.64815 | 8.61129 | 40091 ft | 467 kts | 317° |
| 2026-05-04 18:53 | 44.69980 | 8.55555 | 40091 ft | 468 kts | 317° |
| 2026-05-04 18:54 | 44.75124 | 8.50019 | 40089 ft | 468 kts | 317° |
| 2026-05-04 18:54 | 44.80301 | 8.44436 | 40087 ft | 468 kts | 317° |
| 2026-05-04 18:55 | 44.85464 | 8.38852 | 40106 ft | 468 kts | 317° |
| 2026-05-04 18:55 | 44.93194 | 8.30462 | 40084 ft | 470 kts | 317° |
| 2026-05-04 18:56 | 44.98384 | 8.24813 | 40088 ft | 470 kts | 317° |
| 2026-05-04 18:56 | 45.03581 | 8.19144 | 40086 ft | 470 kts | 317° |
| 2026-05-04 18:57 | 45.08730 | 8.13514 | 40088 ft | 470 kts | 317° |
| 2026-05-04 18:57 | 45.13910 | 8.07837 | 40104 ft | 470 kts | 317° |
| 2026-05-04 18:58 | 45.19092 | 8.02142 | 40095 ft | 471 kts | 317° |
| 2026-05-04 18:58 | 45.24242 | 7.96469 | 40097 ft | 472 kts | 317° |
| 2026-05-04 18:59 | 45.29439 | 7.90733 | 40097 ft | 472 kts | 317° |
| 2026-05-04 18:59 | 45.34620 | 7.85001 | 40101 ft | 472 kts | 317° |
| 2026-05-04 19:00 | 45.39773 | 7.79285 | 40102 ft | 472 kts | 317° |
| 2026-05-04 19:00 | 45.45016 | 7.73607 | 40118 ft | 474 kts | 319° |
| 2026-05-04 19:01 | 45.50369 | 7.68054 | 40116 ft | 476 kts | 319° |
| 2026-05-04 19:01 | 45.55695 | 7.62524 | 40119 ft | 476 kts | 320° |
| 2026-05-04 19:02 | 45.61042 | 7.56916 | 40118 ft | 475 kts | 319° |
| 2026-05-04 19:02 | 45.66337 | 7.51328 | 40118 ft | 475 kts | 319° |
| 2026-05-04 19:03 | 45.71666 | 7.45684 | 40153 ft | 475 kts | 320° |
| 2026-05-04 19:03 | 45.76084 | 7.40995 | 40167 ft | 475 kts | 319° |
| 2026-05-04 19:04 | 45.82266 | 7.34419 | 40147 ft | 475 kts | 319° |
| 2026-05-04 19:04 | 45.86670 | 7.29727 | 40156 ft | 475 kts | 319° |
| 2026-05-04 19:05 | 45.91989 | 7.24053 | 40119 ft | 475 kts | 319° |
| 2026-05-04 19:05 | 45.97302 | 7.18367 | 40064 ft | 475 kts | 319° |
| 2026-05-04 19:06 | 46.02607 | 7.12668 | 40061 ft | 475 kts | 319° |
| 2026-05-04 19:06 | 46.07885 | 7.06987 | 40047 ft | 476 kts | 319° |
| 2026-05-04 19:07 | 46.13196 | 7.01259 | 40039 ft | 476 kts | 319° |
| 2026-05-04 19:07 | 46.18466 | 6.95560 | 40035 ft | 476 kts | 319° |
| 2026-05-04 19:08 | 46.23767 | 6.89812 | 40026 ft | 477 kts | 319° |
| 2026-05-04 19:08 | 46.29065 | 6.84056 | 40021 ft | 477 kts | 319° |
| 2026-05-04 19:09 | 46.34366 | 6.78283 | 40012 ft | 477 kts | 318° |
| 2026-05-04 19:09 | 46.39676 | 6.72482 | 40021 ft | 478 kts | 319° |
| 2026-05-04 19:10 | 46.44999 | 6.66653 | 40019 ft | 478 kts | 319° |
| 2026-05-04 19:10 | 46.50263 | 6.60878 | 40023 ft | 478 kts | 319° |
| 2026-05-04 19:11 | 46.55566 | 6.55044 | 40023 ft | 478 kts | 319° |
| 2026-05-04 19:11 | 46.60874 | 6.49188 | 40022 ft | 478 kts | 319° |
| 2026-05-04 19:12 | 46.68818 | 6.40398 | 40023 ft | 480 kts | 318° |
| 2026-05-04 19:13 | 46.74136 | 6.34495 | 40026 ft | 480 kts | 318° |
| 2026-05-04 19:13 | 46.79425 | 6.28610 | 40022 ft | 480 kts | 318° |
| 2026-05-04 19:14 | 46.84739 | 6.22681 | 40024 ft | 480 kts | 318° |
| 2026-05-04 19:14 | 46.90043 | 6.16749 | 40019 ft | 479 kts | 318° |
| 2026-05-04 19:15 | 46.95343 | 6.10805 | 40009 ft | 480 kts | 318° |
| 2026-05-04 19:15 | 47.00654 | 6.04832 | 40005 ft | 481 kts | 318° |
| 2026-05-04 19:16 | 47.05928 | 5.98887 | 40008 ft | 481 kts | 318° |
| 2026-05-04 19:16 | 47.11237 | 5.92888 | 40004 ft | 481 kts | 318° |
| 2026-05-04 19:17 | 47.16507 | 5.86917 | 40001 ft | 481 kts | 318° |
| 2026-05-04 19:17 | 47.21806 | 5.80897 | 40002 ft | 481 kts | 318° |
| 2026-05-04 19:18 | 47.27108 | 5.74856 | 40000 ft | 481 kts | 318° |
| 2026-05-04 19:18 | 47.32376 | 5.68840 | 39999 ft | 482 kts | 318° |
| 2026-05-04 19:19 | 47.37676 | 5.62771 | 39998 ft | 482 kts | 318° |
| 2026-05-04 19:19 | 47.42970 | 5.56695 | 39994 ft | 482 kts | 318° |
| 2026-05-04 19:20 | 47.48256 | 5.50610 | 39992 ft | 482 kts | 318° |
| 2026-05-04 19:20 | 47.53364 | 5.44293 | 39991 ft | 481 kts | 317° |
| 2026-05-04 19:21 | 47.58694 | 5.38240 | 39989 ft | 483 kts | 320° |
| 2026-05-04 19:21 | 47.64109 | 5.32259 | 39982 ft | 486 kts | 320° |
| 2026-05-04 19:22 | 47.69507 | 5.26245 | 39984 ft | 487 kts | 319° |
| 2026-05-04 19:22 | 47.74910 | 5.20164 | 39973 ft | 487 kts | 319° |
| 2026-05-04 19:23 | 47.80311 | 5.14050 | 39976 ft | 487 kts | 319° |
| 2026-05-04 19:23 | 47.85674 | 5.07962 | 39976 ft | 487 kts | 319° |
| 2026-05-04 19:24 | 47.91071 | 5.01819 | 39970 ft | 489 kts | 319° |
| 2026-05-04 19:24 | 47.96494 | 4.95632 | 39962 ft | 490 kts | 319° |
| 2026-05-04 19:25 | 48.01884 | 4.89466 | 39957 ft | 490 kts | 319° |
| 2026-05-04 19:25 | 48.07292 | 4.83263 | 39957 ft | 490 kts | 319° |
| 2026-05-04 19:26 | 48.12709 | 4.77033 | 39958 ft | 490 kts | 319° |
| 2026-05-04 19:26 | 48.18080 | 4.70839 | 39952 ft | 490 kts | 319° |
| 2026-05-04 19:27 | 48.23488 | 4.64584 | 39950 ft | 492 kts | 319° |
| 2026-05-04 19:27 | 48.28919 | 4.58287 | 39944 ft | 493 kts | 319° |
| 2026-05-04 19:28 | 48.34344 | 4.51979 | 39942 ft | 493 kts | 319° |
| 2026-05-04 19:28 | 48.39759 | 4.45666 | 39934 ft | 492 kts | 319° |
| 2026-05-04 19:29 | 48.45172 | 4.39336 | 39938 ft | 492 kts | 319° |
| 2026-05-04 19:29 | 48.50549 | 4.33032 | 39946 ft | 492 kts | 319° |
| 2026-05-04 19:30 | 48.55956 | 4.26675 | 39951 ft | 491 kts | 319° |
| 2026-05-04 19:30 | 48.61354 | 4.20312 | 39958 ft | 490 kts | 319° |
| 2026-05-04 19:31 | 48.66587 | 4.14125 | 39967 ft | 490 kts | 319° |
| 2026-05-04 19:31 | 48.71968 | 4.07746 | 39966 ft | 490 kts | 319° |
| 2026-05-04 19:32 | 48.77342 | 4.01357 | 39962 ft | 490 kts | 319° |
| 2026-05-04 19:32 | 48.82670 | 3.95005 | 39958 ft | 490 kts | 319° |
| 2026-05-04 19:33 | 48.88032 | 3.88594 | 39955 ft | 490 kts | 319° |
| 2026-05-04 19:33 | 48.93386 | 3.82176 | 39948 ft | 490 kts | 319° |
| 2026-05-04 19:34 | 48.98717 | 3.75767 | 39940 ft | 490 kts | 319° |
| 2026-05-04 19:34 | 49.04069 | 3.69313 | 39942 ft | 490 kts | 319° |
| 2026-05-04 19:35 | 49.09406 | 3.62860 | 39939 ft | 489 kts | 319° |
| 2026-05-04 19:35 | 49.14720 | 3.56416 | 39941 ft | 489 kts | 319° |
| 2026-05-04 19:36 | 49.20046 | 3.49940 | 39946 ft | 489 kts | 319° |
| 2026-05-04 19:36 | 49.25378 | 3.43437 | 39949 ft | 489 kts | 319° |
| 2026-05-04 19:37 | 49.30673 | 3.36962 | 39946 ft | 490 kts | 319° |
| 2026-05-04 19:37 | 49.36011 | 3.30416 | 39945 ft | 490 kts | 319° |
| 2026-05-04 19:38 | 49.41314 | 3.23894 | 39942 ft | 490 kts | 319° |
| 2026-05-04 19:38 | 49.46636 | 3.17331 | 39944 ft | 490 kts | 319° |
| 2026-05-04 19:39 | 49.51955 | 3.10752 | 39944 ft | 490 kts | 319° |
| 2026-05-04 19:39 | 49.57267 | 3.04162 | 39945 ft | 490 kts | 319° |
| 2026-05-04 19:40 | 49.62545 | 2.97596 | 39942 ft | 490 kts | 319° |
| 2026-05-04 19:40 | 49.67857 | 2.90969 | 39942 ft | 490 kts | 319° |
| 2026-05-04 19:41 | 49.73123 | 2.84381 | 39947 ft | 490 kts | 319° |
| 2026-05-04 19:41 | 49.78418 | 2.77737 | 39945 ft | 489 kts | 319° |
| 2026-05-04 19:42 | 49.83698 | 2.71092 | 39965 ft | 489 kts | 319° |
| 2026-05-04 19:42 | 49.88983 | 2.64422 | 39954 ft | 489 kts | 319° |
| 2026-05-04 19:43 | 49.94232 | 2.57777 | 39970 ft | 489 kts | 319° |
| 2026-05-04 19:43 | 49.99507 | 2.51080 | 39967 ft | 489 kts | 319° |
| 2026-05-04 19:44 | 50.04750 | 2.44405 | 39963 ft | 489 kts | 319° |
| 2026-05-04 19:44 | 50.10024 | 2.37671 | 39967 ft | 489 kts | 319° |
| 2026-05-04 19:45 | 50.15283 | 2.30936 | 39971 ft | 489 kts | 319° |
| 2026-05-04 19:45 | 50.20510 | 2.24221 | 39974 ft | 490 kts | 319° |
| 2026-05-04 19:46 | 50.25797 | 2.17410 | 39980 ft | 492 kts | 319° |
| 2026-05-04 19:46 | 50.31044 | 2.10632 | 39979 ft | 492 kts | 319° |
| 2026-05-04 19:47 | 50.36323 | 2.03792 | 39979 ft | 492 kts | 318° |
| 2026-05-04 19:47 | 50.41536 | 1.96839 | 39986 ft | 491 kts | 317° |
| 2026-05-04 19:48 | 50.46655 | 1.89835 | 39985 ft | 491 kts | 317° |
| 2026-05-04 19:48 | 50.51803 | 1.82764 | 39997 ft | 491 kts | 317° |
| 2026-05-04 19:49 | 50.56957 | 1.75687 | 39993 ft | 492 kts | 317° |
| 2026-05-04 19:49 | 50.62116 | 1.68594 | 39993 ft | 492 kts | 317° |
| 2026-05-04 19:50 | 50.67233 | 1.61539 | 39998 ft | 492 kts | 317° |
| 2026-05-04 19:50 | 50.72382 | 1.54411 | 39998 ft | 492 kts | 317° |
| 2026-05-04 19:51 | 50.77524 | 1.47269 | 40004 ft | 492 kts | 317° |
| 2026-05-04 19:51 | 50.82630 | 1.40160 | 40015 ft | 492 kts | 316° |
| 2026-05-04 19:52 | 50.87768 | 1.32988 | 40011 ft | 492 kts | 316° |
| 2026-05-04 19:52 | 50.92900 | 1.25804 | 40018 ft | 491 kts | 316° |
| 2026-05-04 19:53 | 50.98021 | 1.18611 | 40022 ft | 491 kts | 316° |
| 2026-05-04 19:53 | 51.03108 | 1.11446 | 40022 ft | 491 kts | 316° |
| 2026-05-04 19:54 | 51.08183 | 1.04154 | 40021 ft | 490 kts | 315° |
| 2026-05-04 19:54 | 51.13055 | 0.96644 | 40013 ft | 490 kts | 313° |
| 2026-05-04 19:55 | 51.17912 | 0.89008 | 39803 ft | 487 kts | 314° |
| 2026-05-04 19:55 | 51.20341 | 0.85194 | 39186 ft | 489 kts | 314° |
| 2026-05-04 19:55 | 51.22780 | 0.81369 | 38522 ft | 492 kts | 314° |
| 2026-05-04 19:55 | 51.25176 | 0.77620 | 38203 ft | 484 kts | 314° |
| 2026-05-04 19:56 | 51.27560 | 0.73892 | 37997 ft | 474 kts | 314° |
| 2026-05-04 19:56 | 51.29895 | 0.70240 | 37698 ft | 462 kts | 314° |
| 2026-05-04 19:56 | 51.32174 | 0.66669 | 37013 ft | 455 kts | 313° |
| 2026-05-04 19:56 | 51.34425 | 0.63134 | 36184 ft | 452 kts | 313° |
| 2026-05-04 19:57 | 51.36654 | 0.59624 | 35333 ft | 449 kts | 313° |
| 2026-05-04 19:57 | 51.38855 | 0.56154 | 34465 ft | 447 kts | 313° |
| 2026-05-04 19:57 | 51.41067 | 0.52660 | 33471 ft | 446 kts | 313° |
| 2026-05-04 19:57 | 51.43282 | 0.49158 | 32293 ft | 447 kts | 313° |
| 2026-05-04 19:58 | 51.45504 | 0.45637 | 31148 ft | 451 kts | 312° |
| 2026-05-04 19:58 | 51.47750 | 0.42075 | 30433 ft | 454 kts | 312° |
| 2026-05-04 19:58 | 51.49974 | 0.38541 | 30098 ft | 457 kts | 312° |
| 2026-05-04 19:59 | 51.53759 | 0.32529 | 30018 ft | 459 kts | 312° |
| 2026-05-04 19:59 | 51.56807 | 0.27687 | 30017 ft | 472 kts | 312° |
| 2026-05-04 19:59 | 51.58368 | 0.25192 | 30016 ft | 478 kts | 312° |
| 2026-05-04 20:00 | 51.63173 | 0.17483 | 30016 ft | 496 kts | 312° |
| 2026-05-04 20:00 | 51.68912 | 0.08166 | 30024 ft | 506 kts | 311° |
| 2026-05-04 20:01 | 51.73040 | 0.01377 | 30045 ft | 505 kts | 311° |
| 2026-05-04 20:01 | 51.77916 | -0.06673 | 30042 ft | 499 kts | 312° |
| 2026-05-04 20:01 | 51.80282 | -0.10577 | 30055 ft | 468 kts | 312° |
| 2026-05-04 20:02 | 51.82506 | -0.14245 | 30056 ft | 449 kts | 312° |
| 2026-05-04 20:02 | 51.84632 | -0.17760 | 30059 ft | 424 kts | 311° |
| 2026-05-04 20:02 | 51.86667 | -0.21134 | 30055 ft | 412 kts | 311° |
| 2026-05-04 20:02 | 51.88616 | -0.24376 | 30055 ft | 400 kts | 311° |
| 2026-05-04 20:03 | 51.90533 | -0.27570 | 29765 ft | 394 kts | 311° |
| 2026-05-04 20:03 | 51.92442 | -0.30760 | 29213 ft | 394 kts | 311° |
| 2026-05-04 20:03 | 51.94340 | -0.33936 | 28836 ft | 390 kts | 311° |
| 2026-05-04 20:03 | 51.96225 | -0.37089 | 28467 ft | 386 kts | 311° |
| 2026-05-04 20:04 | 51.98088 | -0.40208 | 28078 ft | 383 kts | 311° |
| 2026-05-04 20:04 | 51.99936 | -0.43305 | 27674 ft | 380 kts | 311° |
| 2026-05-04 20:04 | 52.01750 | -0.46346 | 27295 ft | 378 kts | 311° |
| 2026-05-04 20:04 | 52.03569 | -0.49401 | 26893 ft | 376 kts | 311° |
| 2026-05-04 20:05 | 52.05384 | -0.52452 | 26536 ft | 373 kts | 311° |
| 2026-05-04 20:05 | 52.07171 | -0.55458 | 26255 ft | 367 kts | 311° |
| 2026-05-04 20:05 | 52.08943 | -0.58442 | 25890 ft | 365 kts | 311° |
| 2026-05-04 20:05 | 52.10702 | -0.61409 | 25517 ft | 363 kts | 310° |
| 2026-05-04 20:06 | 52.12450 | -0.64364 | 25164 ft | 361 kts | 310° |
| 2026-05-04 20:06 | 52.14188 | -0.67303 | 25052 ft | 360 kts | 310° |
| 2026-05-04 20:06 | 52.15926 | -0.70249 | 25043 ft | 361 kts | 310° |
| 2026-05-04 20:06 | 52.17651 | -0.73173 | 25045 ft | 355 kts | 310° |
| 2026-05-04 20:07 | 52.19347 | -0.76048 | 25048 ft | 349 kts | 310° |
| 2026-05-04 20:07 | 52.21016 | -0.78879 | 25049 ft | 341 kts | 310° |
| 2026-05-04 20:07 | 52.22622 | -0.81608 | 25043 ft | 335 kts | 310° |
| 2026-05-04 20:07 | 52.24297 | -0.84258 | 24925 ft | 336 kts | 316° |
| 2026-05-04 20:08 | 52.26181 | -0.86569 | 24554 ft | 339 kts | 322° |
| 2026-05-04 20:08 | 52.28141 | -0.88679 | 24304 ft | 336 kts | 324° |
| 2026-05-04 20:08 | 52.30118 | -0.90685 | 24150 ft | 330 kts | 324° |
| 2026-05-04 20:08 | 52.32049 | -0.92590 | 23899 ft | 326 kts | 324° |
| 2026-05-04 20:09 | 52.33996 | -0.94497 | 23555 ft | 325 kts | 324° |
| 2026-05-04 20:09 | 52.35933 | -0.96397 | 23180 ft | 324 kts | 324° |
| 2026-05-04 20:09 | 52.37870 | -0.98309 | 22807 ft | 323 kts | 324° |
| 2026-05-04 20:09 | 52.39793 | -1.00220 | 22430 ft | 323 kts | 324° |
| 2026-05-04 20:10 | 52.41711 | -1.02134 | 22032 ft | 323 kts | 324° |
| 2026-05-04 20:10 | 52.43596 | -1.04020 | 21705 ft | 320 kts | 324° |
| 2026-05-04 20:10 | 52.45496 | -1.05925 | 21380 ft | 318 kts | 324° |
| 2026-05-04 20:10 | 52.47382 | -1.07817 | 21043 ft | 317 kts | 325° |
| 2026-05-04 20:11 | 52.49266 | -1.09710 | 20697 ft | 315 kts | 325° |
| 2026-05-04 20:11 | 52.51138 | -1.11592 | 20358 ft | 314 kts | 325° |
| 2026-05-04 20:11 | 52.52963 | -1.13428 | 20116 ft | 307 kts | 325° |
| 2026-05-04 20:11 | 52.54785 | -1.15261 | 20039 ft | 307 kts | 325° |
| 2026-05-04 20:12 | 52.56597 | -1.17090 | 20034 ft | 305 kts | 325° |
| 2026-05-04 20:12 | 52.58408 | -1.18917 | 20033 ft | 303 kts | 325° |
| 2026-05-04 20:12 | 52.60203 | -1.20732 | 20013 ft | 303 kts | 325° |
| 2026-05-04 20:12 | 52.62001 | -1.22550 | 20029 ft | 302 kts | 325° |
| 2026-05-04 20:13 | 52.63799 | -1.24370 | 20028 ft | 302 kts | 325° |
| 2026-05-04 20:13 | 52.65574 | -1.26168 | 20012 ft | 303 kts | 325° |
| 2026-05-04 20:13 | 52.67370 | -1.27987 | 20028 ft | 303 kts | 325° |
| 2026-05-04 20:13 | 52.69162 | -1.29806 | 20029 ft | 303 kts | 325° |
| 2026-05-04 20:14 | 52.70964 | -1.31637 | 20009 ft | 303 kts | 325° |
| 2026-05-04 20:14 | 52.72758 | -1.33462 | 19636 ft | 303 kts | 325° |
| 2026-05-04 20:14 | 52.74528 | -1.35266 | 19250 ft | 301 kts | 325° |
| 2026-05-04 20:14 | 52.76309 | -1.37081 | 18940 ft | 298 kts | 326° |
| 2026-05-04 20:15 | 52.78073 | -1.38881 | 18618 ft | 297 kts | 326° |
| 2026-05-04 20:15 | 52.79828 | -1.40673 | 18239 ft | 296 kts | 326° |
| 2026-05-04 20:15 | 52.81581 | -1.42466 | 17756 ft | 294 kts | 326° |
| 2026-05-04 20:15 | 52.83292 | -1.44215 | 17279 ft | 292 kts | 326° |
| 2026-05-04 20:16 | 52.85012 | -1.45978 | 16808 ft | 289 kts | 326° |
| 2026-05-04 20:16 | 52.86719 | -1.47728 | 16354 ft | 287 kts | 326° |
| 2026-05-04 20:16 | 52.88409 | -1.49462 | 15886 ft | 285 kts | 326° |
| 2026-05-04 20:16 | 52.90092 | -1.51192 | 15427 ft | 283 kts | 326° |
| 2026-05-04 20:17 | 52.91758 | -1.52904 | 14992 ft | 281 kts | 326° |
| 2026-05-04 20:17 | 52.93414 | -1.54610 | 14558 ft | 280 kts | 326° |
| 2026-05-04 20:17 | 52.95046 | -1.56290 | 14127 ft | 278 kts | 326° |
| 2026-05-04 20:17 | 52.96684 | -1.57980 | 13681 ft | 276 kts | 326° |
| 2026-05-04 20:18 | 52.98312 | -1.59660 | 13213 ft | 274 kts | 327° |
| 2026-05-04 20:18 | 52.99930 | -1.61330 | 12735 ft | 272 kts | 326° |
| 2026-05-04 20:18 | 53.01516 | -1.62971 | 12276 ft | 270 kts | 327° |
| 2026-05-04 20:18 | 53.03108 | -1.64618 | 11811 ft | 268 kts | 327° |
| 2026-05-04 20:19 | 53.04675 | -1.66291 | 11366 ft | 266 kts | 323° |
| 2026-05-04 20:19 | 53.06056 | -1.68308 | 10918 ft | 263 kts | 313° |
| 2026-05-04 20:19 | 53.07280 | -1.70571 | 10478 ft | 261 kts | 310° |
| 2026-05-04 20:19 | 53.08448 | -1.72836 | 10054 ft | 259 kts | 310° |
| 2026-05-04 20:20 | 53.09613 | -1.75111 | 9574 ft | 257 kts | 310° |
| 2026-05-04 20:20 | 53.10773 | -1.77373 | 9102 ft | 255 kts | 310° |
| 2026-05-04 20:20 | 53.11923 | -1.79613 | 8626 ft | 254 kts | 310° |
| 2026-05-04 20:20 | 53.13068 | -1.81841 | 8200 ft | 251 kts | 310° |
| 2026-05-04 20:21 | 53.14192 | -1.84028 | 8062 ft | 250 kts | 310° |
| 2026-05-04 20:21 | 53.15323 | -1.86232 | 8047 ft | 257 kts | 310° |
| 2026-05-04 20:21 | 53.17658 | -1.90781 | 8059 ft | 258 kts | 310° |
| 2026-05-04 20:22 | 53.18825 | -1.93056 | 8061 ft | 258 kts | 310° |
| 2026-05-04 20:22 | 53.19990 | -1.95332 | 8063 ft | 258 kts | 310° |
| 2026-05-04 20:22 | 53.21158 | -1.97614 | 8063 ft | 258 kts | 310° |
| 2026-05-04 20:22 | 53.22313 | -1.99870 | 8064 ft | 258 kts | 310° |
| 2026-05-04 20:23 | 53.23607 | -2.01940 | 8079 ft | 258 kts | 328° |
| 2026-05-04 20:23 | 53.25316 | -2.02844 | 8069 ft | 261 kts | 355° |
| 2026-05-04 20:23 | 53.27103 | -2.02333 | 7915 ft | 263 kts | 19° |
| 2026-05-04 20:23 | 53.28731 | -2.01111 | 7687 ft | 249 kts | 24° |
| 2026-05-04 20:24 | 53.30270 | -1.99831 | 7273 ft | 246 kts | 25° |
| 2026-05-04 20:24 | 53.31807 | -1.98548 | 6740 ft | 249 kts | 25° |
| 2026-05-04 20:24 | 53.33366 | -1.97247 | 6178 ft | 252 kts | 25° |
| 2026-05-04 20:24 | 53.34945 | -1.95931 | 5601 ft | 254 kts | 25° |
| 2026-05-04 20:25 | 53.36507 | -1.94630 | 5180 ft | 250 kts | 25° |
| 2026-05-04 20:25 | 53.38020 | -1.93364 | 5078 ft | 237 kts | 25° |
| 2026-05-04 20:25 | 53.39483 | -1.92142 | 5067 ft | 234 kts | 25° |
| 2026-05-04 20:25 | 53.40943 | -1.90923 | 5064 ft | 234 kts | 25° |
| 2026-05-04 20:26 | 53.42403 | -1.89698 | 4991 ft | 234 kts | 25° |
| 2026-05-04 20:26 | 53.43867 | -1.88467 | 4624 ft | 233 kts | 25° |
| 2026-05-04 20:26 | 53.45273 | -1.87286 | 4368 ft | 225 kts | 25° |
| 2026-05-04 20:26 | 53.46665 | -1.86111 | 4031 ft | 223 kts | 25° |
| 2026-05-04 20:27 | 53.48052 | -1.84940 | 3654 ft | 222 kts | 24° |
| 2026-05-04 20:27 | 53.49510 | -1.84320 | 3478 ft | 212 kts | 355° |
| 2026-05-04 20:27 | 53.50824 | -1.85151 | 3468 ft | 201 kts | 320° |
| 2026-05-04 20:27 | 53.51566 | -1.87103 | 3480 ft | 202 kts | 284° |
| 2026-05-04 20:28 | 53.51474 | -1.89449 | 3476 ft | 205 kts | 253° |
| 2026-05-04 20:28 | 53.50904 | -1.91652 | 3464 ft | 207 kts | 246° |
| 2026-05-04 20:28 | 53.50269 | -1.93801 | 3464 ft | 208 kts | 245° |
| 2026-05-04 20:28 | 53.49622 | -1.95976 | 3476 ft | 207 kts | 245° |
| 2026-05-04 20:29 | 53.48979 | -1.98138 | 3470 ft | 207 kts | 245° |
| 2026-05-04 20:29 | 53.48343 | -2.00304 | 3474 ft | 207 kts | 243° |
| 2026-05-04 20:29 | 53.47537 | -2.02311 | 3470 ft | 208 kts | 234° |
| 2026-05-04 20:29 | 53.46645 | -2.04187 | 3467 ft | 199 kts | 233° |
| 2026-05-04 20:30 | 53.45802 | -2.05941 | 3394 ft | 188 kts | 233° |
| 2026-05-04 20:30 | 53.45001 | -2.07638 | 3129 ft | 184 kts | 233° |
| 2026-05-04 20:30 | 53.44204 | -2.09296 | 2842 ft | 185 kts | 234° |
| 2026-05-04 20:30 | 53.43391 | -2.10974 | 2589 ft | 186 kts | 233° |
| 2026-05-04 20:31 | 53.42578 | -2.12653 | 2344 ft | 186 kts | 233° |
| 2026-05-04 20:31 | 53.41781 | -2.14298 | 2081 ft | 175 kts | 234° |
| 2026-05-04 20:31 | 53.41035 | -2.15837 | 1876 ft | 165 kts | 234° |
| 2026-05-04 20:31 | 53.40320 | -2.17315 | 1646 ft | 162 kts | 234° |
| 2026-05-04 20:32 | 53.39617 | -2.18767 | 1414 ft | 162 kts | 234° |
| 2026-05-04 20:32 | 53.38932 | -2.20177 | 1189 ft | 149 kts | 233° |
| 2026-05-04 20:32 | 53.38288 | -2.21474 | 959 ft | 143 kts | 233° |
| 2026-05-04 20:32 | 53.37661 | -2.22745 | 744 ft | 141 kts | 234° |
| 2026-05-04 20:33 | 53.37053 | -2.24017 | 587 ft | 140 kts | 234° |
| 2026-05-04 20:33 | 53.36434 | -2.25287 | 381 ft | 139 kts | 234° |
| 2026-05-04 20:33 | 53.35836 | -2.26546 | 274 ft | 131 kts | 232° |
| 2026-05-04 20:33 | 53.35345 | -2.27556 | 246 ft | 97 kts | 231° |
| 2026-05-04 20:34 | 53.35031 | -2.28213 | 242 ft | 51 kts | 238° |
| 2026-05-04 20:34 | 53.34942 | -2.28656 | 234 ft | 27 kts | 266° |
| 2026-05-04 20:34 | 53.35007 | -2.28727 | 236 ft | 11 kts | 31° |
| 2026-05-04 20:34 | 53.35062 | -2.28642 | 236 ft | 11 kts | 47° |
| 2026-05-04 20:35 | 53.35115 | -2.28541 | 234 ft | 13 kts | 51° |
| 2026-05-04 20:35 | 53.35178 | -2.28414 | 236 ft | 14 kts | 51° |
| 2026-05-04 20:35 | 53.35232 | -2.28303 | 240 ft | 12 kts | 51° |
| 2026-05-04 20:35 | 53.35298 | -2.28216 | 236 ft | 12 kts | 26° |
| 2026-05-04 20:36 | 53.35372 | -2.28174 | 239 ft | 12 kts | 8° |
| 2026-05-04 20:36 | 53.35481 | -2.28130 | 238 ft | 21 kts | 22° |
| 2026-05-04 20:36 | 53.35571 | -2.28010 | 241 ft | 16 kts | 48° |
| 2026-05-04 20:36 | 53.35643 | -2.27858 | 245 ft | 15 kts | 51° |
| 2026-05-04 20:37 | 53.35666 | -2.27840 | 247 ft | 4 kts | 344° |
| 2026-05-04 20:37 | 53.35746 | -2.27873 | 251 ft | 13 kts | 3° |
| 2026-05-04 20:37 | 53.35825 | -2.27863 | 255 ft | 9 kts | 1° |
| 2026-05-04 20:37 | 53.35872 | -2.27859 | 258 ft | 6 kts | 5° |
| 2026-05-04 20:38 | 53.35925 | -2.27856 | 259 ft | 12 kts | 355° |
| 2026-05-04 20:38 | 53.36030 | -2.27960 | 259 ft | 23 kts | 319° |
| 2026-05-04 20:38 | 53.36156 | -2.28152 | 259 ft | 26 kts | 314° |
| 2026-05-04 20:38 | 53.36282 | -2.28364 | 259 ft | 23 kts | 315° |
| 2026-05-04 20:39 | 53.36417 | -2.28505 | 259 ft | 24 kts | 330° |
| 2026-05-04 20:39 | 53.36549 | -2.28710 | 259 ft | 27 kts | 313° |
| 2026-05-04 20:39 | 53.36662 | -2.28764 | 259 ft | 17 kts | 24° |
| 2026-05-04 20:39 | 53.36737 | -2.28659 | 259 ft | 14 kts | 52° |
| 2026-05-04 20:40 | 53.36817 | -2.28523 | 259 ft | 15 kts | 45° |
| 2026-05-04 20:40 | 53.36861 | -2.28482 | 259 ft | 4 kts | 342° |
| 2026-05-04 20:40 | 53.36882 | -2.28504 | 259 ft | 5 kts | 314° |
| 2026-05-04 20:40 | 53.36896 | -2.28527 | 259 ft | 0 kts | 315° |